sensor_id;sensor_type;location;lat;lon;timestamp;pressure;altitude;pressure_sealevel;temperature;humidity
13604;BME280;24578;48.264;11.436;2024-01-06T00:02:42;94894.41;;;4.15;100.00
13604;BME280;24578;48.264;11.436;2024-01-06T00:08:44;94908.94;;;4.14;100.00
13604;BME280;24578;48.264;11.436;2024-01-06T00:14:48;94905.69;;;4.12;100.00
13604;BME280;24578;48.264;11.436;2024-01-06T00:20:56;94902.31;;;4.11;100.00
13604;BME280;24578;48.264;11.436;2024-01-06T00:27:05;94903.94;;;4.13;100.00
13604;BME280;24578;48.264;11.436;2024-01-06T00:33:07;94891.25;;;4.11;100.00
13604;BME280;24578;48.264;11.436;2024-01-06T00:39:09;94886.94;;;4.11;100.00
13604;BME280;24578;48.264;11.436;2024-01-06T00:45:10;94896.59;;;4.08;100.00
13604;BME280;24578;48.264;11.436;2024-01-06T00:51:12;94894.94;;;4.07;100.00
13604;BME280;24578;48.264;11.436;2024-01-06T00:57:14;94886.22;;;4.09;100.00
13604;BME280;24578;48.264;11.436;2024-01-06T01:03:15;94880.09;;;4.12;100.00
13604;BME280;24578;48.264;11.436;2024-01-06T01:09:20;94889.69;;;4.08;100.00
13604;BME280;24578;48.264;11.436;2024-01-06T01:15:22;94889.69;;;4.08;100.00
13604;BME280;24578;48.264;11.436;2024-01-06T01:21:24;94894.75;;;4.10;100.00
13604;BME280;24578;48.264;11.436;2024-01-06T01:27:25;94897.31;;;4.10;100.00
13604;BME280;24578;48.264;11.436;2024-01-06T01:33:27;94888.78;;;4.09;100.00
13604;BME280;24578;48.264;11.436;2024-01-06T01:39:29;94897.81;;;4.02;100.00
13604;BME280;24578;48.264;11.436;2024-01-06T01:45:30;94896.97;;;4.02;100.00
13604;BME280;24578;48.264;11.436;2024-01-06T01:51:34;94905.38;;;4.04;100.00
13604;BME280;24578;48.264;11.436;2024-01-06T01:57:36;94911.63;;;4.00;100.00
13604;BME280;24578;48.264;11.436;2024-01-06T02:03:40;94918.50;;;3.99;100.00
13604;BME280;24578;48.264;11.436;2024-01-06T02:09:42;94906.75;;;3.96;100.00
13604;BME280;24578;48.264;11.436;2024-01-06T02:15:44;94911.84;;;3.96;100.00
13604;BME280;24578;48.264;11.436;2024-01-06T02:21:52;94923.31;;;3.91;100.00
13604;BME280;24578;48.264;11.436;2024-01-06T02:27:55;94921.47;;;3.93;100.00
13604;BME280;24578;48.264;11.436;2024-01-06T02:33:57;94920.84;;;3.89;100.00
13604;BME280;24578;48.264;11.436;2024-01-06T02:39:59;94917.56;;;3.87;100.00
13604;BME280;24578;48.264;11.436;2024-01-06T02:46:02;94926.19;;;3.86;100.00
13604;BME280;24578;48.264;11.436;2024-01-06T02:52:04;94932.13;;;3.87;100.00
13604;BME280;24578;48.264;11.436;2024-01-06T02:58:06;94932.41;;;3.82;100.00
13604;BME280;24578;48.264;11.436;2024-01-06T03:04:07;94943.50;;;3.83;100.00
13604;BME280;24578;48.264;11.436;2024-01-06T03:10:10;94939.28;;;3.81;100.00
13604;BME280;24578;48.264;11.436;2024-01-06T03:16:12;94942.97;;;3.77;100.00
13604;BME280;24578;48.264;11.436;2024-01-06T03:22:17;94946.25;;;3.79;100.00
13604;BME280;24578;48.264;11.436;2024-01-06T03:28:19;94949.72;;;3.78;100.00
13604;BME280;24578;48.264;11.436;2024-01-06T03:34:25;94949.91;;;3.75;100.00
13604;BME280;24578;48.264;11.436;2024-01-06T03:40:27;94956.78;;;3.75;100.00
13604;BME280;24578;48.264;11.436;2024-01-06T03:46:29;94958.00;;;3.69;100.00
13604;BME280;24578;48.264;11.436;2024-01-06T03:52:31;94960.66;;;3.68;100.00
13604;BME280;24578;48.264;11.436;2024-01-06T03:58:33;94966.19;;;3.61;100.00
13604;BME280;24578;48.264;11.436;2024-01-06T04:04:43;94971.69;;;3.55;100.00
13604;BME280;24578;48.264;11.436;2024-01-06T04:10:45;94966.88;;;3.50;100.00
13604;BME280;24578;48.264;11.436;2024-01-06T04:16:47;94982.91;;;3.40;100.00
13604;BME280;24578;48.264;11.436;2024-01-06T04:22:48;94990.88;;;3.35;100.00
13604;BME280;24578;48.264;11.436;2024-01-06T04:28:50;94996.00;;;3.35;100.00
13604;BME280;24578;48.264;11.436;2024-01-06T04:34:53;94988.50;;;3.32;100.00
13604;BME280;24578;48.264;11.436;2024-01-06T04:41:09;94980.94;;;3.30;100.00
13604;BME280;24578;48.264;11.436;2024-01-06T04:47:11;94993.63;;;3.32;100.00
13604;BME280;24578;48.264;11.436;2024-01-06T04:53:18;94999.03;;;3.27;100.00
13604;BME280;24578;48.264;11.436;2024-01-06T04:59:20;95002.69;;;3.23;100.00
13604;BME280;24578;48.264;11.436;2024-01-06T05:05:28;95001.97;;;3.21;100.00
13604;BME280;24578;48.264;11.436;2024-01-06T05:11:33;95008.09;;;3.18;100.00
13604;BME280;24578;48.264;11.436;2024-01-06T05:17:35;95025.38;;;3.15;100.00
13604;BME280;24578;48.264;11.436;2024-01-06T05:23:38;95034.34;;;3.08;100.00
13604;BME280;24578;48.264;11.436;2024-01-06T05:29:40;95026.34;;;2.99;100.00
13604;BME280;24578;48.264;11.436;2024-01-06T05:35:42;95035.84;;;2.97;100.00
13604;BME280;24578;48.264;11.436;2024-01-06T05:41:54;95054.66;;;2.82;100.00
13604;BME280;24578;48.264;11.436;2024-01-06T05:48:10;95065.78;;;2.81;100.00
13604;BME280;24578;48.264;11.436;2024-01-06T05:54:12;95080.03;;;2.70;100.00
13604;BME280;24578;48.264;11.436;2024-01-06T06:00:18;95084.13;;;2.73;100.00
13604;BME280;24578;48.264;11.436;2024-01-06T06:06:19;95088.91;;;2.65;100.00
13604;BME280;24578;48.264;11.436;2024-01-06T06:12:21;95089.81;;;2.64;100.00
13604;BME280;24578;48.264;11.436;2024-01-06T06:18:25;95103.84;;;2.56;100.00
13604;BME280;24578;48.264;11.436;2024-01-06T06:24:27;95097.44;;;2.49;100.00
13604;BME280;24578;48.264;11.436;2024-01-06T06:30:29;95112.06;;;2.47;100.00
13604;BME280;24578;48.264;11.436;2024-01-06T06:36:30;95114.78;;;2.44;100.00
13604;BME280;24578;48.264;11.436;2024-01-06T06:42:33;95120.22;;;2.38;100.00
13604;BME280;24578;48.264;11.436;2024-01-06T06:48:35;95124.53;;;2.37;100.00
13604;BME280;24578;48.264;11.436;2024-01-06T06:54:37;95133.84;;;2.38;100.00
13604;BME280;24578;48.264;11.436;2024-01-06T07:00:39;95126.16;;;2.38;100.00
13604;BME280;24578;48.264;11.436;2024-01-06T07:06:41;95136.19;;;2.41;100.00
13604;BME280;24578;48.264;11.436;2024-01-06T07:12:43;95134.38;;;2.43;100.00
13604;BME280;24578;48.264;11.436;2024-01-06T07:18:46;95142.13;;;2.42;100.00
13604;BME280;24578;48.264;11.436;2024-01-06T07:24:48;95152.63;;;2.37;100.00
13604;BME280;24578;48.264;11.436;2024-01-06T07:30:50;95163.75;;;2.36;100.00
13604;BME280;24578;48.264;11.436;2024-01-06T07:36:53;95163.56;;;2.39;100.00
13604;BME280;24578;48.264;11.436;2024-01-06T07:42:54;95172.88;;;2.40;100.00
13604;BME280;24578;48.264;11.436;2024-01-06T07:48:56;95180.28;;;2.45;100.00
13604;BME280;24578;48.264;11.436;2024-01-06T07:54:58;95186.13;;;2.47;100.00
13604;BME280;24578;48.264;11.436;2024-01-06T08:01:00;95191.31;;;2.46;100.00
13604;BME280;24578;48.264;11.436;2024-01-06T08:07:03;95200.44;;;2.50;100.00
13604;BME280;24578;48.264;11.436;2024-01-06T08:13:05;95207.22;;;2.51;100.00
13604;BME280;24578;48.264;11.436;2024-01-06T08:19:07;95215.63;;;2.53;100.00
13604;BME280;24578;48.264;11.436;2024-01-06T08:25:09;95206.94;;;2.55;100.00
13604;BME280;24578;48.264;11.436;2024-01-06T08:31:10;95197.47;;;2.57;100.00
13604;BME280;24578;48.264;11.436;2024-01-06T08:37:12;95214.56;;;2.71;100.00
13604;BME280;24578;48.264;11.436;2024-01-06T08:43:16;95217.94;;;2.72;100.00
13604;BME280;24578;48.264;11.436;2024-01-06T08:49:17;95216.50;;;2.82;100.00
13604;BME280;24578;48.264;11.436;2024-01-06T08:55:19;95228.47;;;2.96;100.00
13604;BME280;24578;48.264;11.436;2024-01-06T09:01:21;95229.41;;;3.10;100.00
13604;BME280;24578;48.264;11.436;2024-01-06T09:07:23;95235.44;;;3.23;100.00
13604;BME280;24578;48.264;11.436;2024-01-06T09:13:25;95229.34;;;3.26;100.00
13604;BME280;24578;48.264;11.436;2024-01-06T09:19:26;95229.59;;;3.21;100.00
13604;BME280;24578;48.264;11.436;2024-01-06T09:25:30;95227.78;;;3.38;100.00
13604;BME280;24578;48.264;11.436;2024-01-06T09:31:35;95235.28;;;3.41;100.00
13604;BME280;24578;48.264;11.436;2024-01-06T09:37:38;95238.75;;;3.40;100.00
13604;BME280;24578;48.264;11.436;2024-01-06T09:43:39;95239.94;;;3.48;100.00
13604;BME280;24578;48.264;11.436;2024-01-06T09:49:47;95249.16;;;3.51;100.00
13604;BME280;24578;48.264;11.436;2024-01-06T09:55:50;95249.72;;;3.42;100.00
13604;BME280;24578;48.264;11.436;2024-01-06T10:01:53;95245.59;;;3.39;100.00
13604;BME280;24578;48.264;11.436;2024-01-06T10:07:57;95253.28;;;3.39;100.00
13604;BME280;24578;48.264;11.436;2024-01-06T10:13:58;95253.56;;;3.49;100.00
13604;BME280;24578;48.264;11.436;2024-01-06T10:20:09;95243.56;;;3.59;100.00
13604;BME280;24578;48.264;11.436;2024-01-06T10:26:14;95218.34;;;3.67;100.00
13604;BME280;24578;48.264;11.436;2024-01-06T10:32:17;95219.81;;;3.71;100.00
13604;BME280;24578;48.264;11.436;2024-01-06T10:38:20;95230.84;;;3.86;100.00
13604;BME280;24578;48.264;11.436;2024-01-06T10:44:24;95225.28;;;3.79;100.00
13604;BME280;24578;48.264;11.436;2024-01-06T10:50:27;95225.75;;;3.72;100.00
13604;BME280;24578;48.264;11.436;2024-01-06T10:56:30;95220.44;;;3.75;100.00
13604;BME280;24578;48.264;11.436;2024-01-06T11:02:40;95217.13;;;3.87;100.00
13604;BME280;24578;48.264;11.436;2024-01-06T11:09:22;95218.41;;;3.94;100.00
13604;BME280;24578;48.264;11.436;2024-01-06T11:15:46;95223.63;;;3.78;100.00
13604;BME280;24578;48.264;11.436;2024-01-06T11:21:48;95221.34;;;3.74;100.00
13604;BME280;24578;48.264;11.436;2024-01-06T11:27:50;95219.81;;;3.71;100.00
13604;BME280;24578;48.264;11.436;2024-01-06T11:33:54;95223.81;;;3.75;100.00
13604;BME280;24578;48.264;11.436;2024-01-06T11:39:56;95219.13;;;3.82;100.00
13604;BME280;24578;48.264;11.436;2024-01-06T11:45:58;95220.63;;;3.72;100.00
13604;BME280;24578;48.264;11.436;2024-01-06T11:52:02;95210.03;;;3.78;100.00
13604;BME280;24578;48.264;11.436;2024-01-06T11:58:04;95206.94;;;3.58;100.00
13604;BME280;24578;48.264;11.436;2024-01-06T12:04:07;95197.59;;;3.57;100.00
13604;BME280;24578;48.264;11.436;2024-01-06T12:10:09;95195.53;;;3.49;100.00
13604;BME280;24578;48.264;11.436;2024-01-06T12:16:10;95181.34;;;3.58;100.00
13604;BME280;24578;48.264;11.436;2024-01-06T12:22:14;95186.16;;;3.63;100.00
13604;BME280;24578;48.264;11.436;2024-01-06T12:28:16;95184.44;;;3.63;100.00
13604;BME280;24578;48.264;11.436;2024-01-06T12:34:17;95182.41;;;3.69;100.00
13604;BME280;24578;48.264;11.436;2024-01-06T12:40:23;95179.81;;;3.56;100.00
13604;BME280;24578;48.264;11.436;2024-01-06T12:46:24;95188.00;;;3.61;100.00
13604;BME280;24578;48.264;11.436;2024-01-06T12:52:26;95188.84;;;3.47;100.00
13604;BME280;24578;48.264;11.436;2024-01-06T12:58:30;95194.78;;;3.47;100.00
13604;BME280;24578;48.264;11.436;2024-01-06T13:04:34;95185.84;;;3.40;100.00
13604;BME280;24578;48.264;11.436;2024-01-06T13:10:37;95204.69;;;3.39;100.00
13604;BME280;24578;48.264;11.436;2024-01-06T13:16:38;95204.47;;;3.28;100.00
13604;BME280;24578;48.264;11.436;2024-01-06T13:22:40;95203.94;;;3.08;100.00
13604;BME280;24578;48.264;11.436;2024-01-06T13:28:42;95206.50;;;3.08;100.00
13604;BME280;24578;48.264;11.436;2024-01-06T13:34:43;95205.84;;;3.04;100.00
13604;BME280;24578;48.264;11.436;2024-01-06T13:40:45;95205.31;;;2.99;100.00
13604;BME280;24578;48.264;11.436;2024-01-06T13:46:47;95210.03;;;3.05;100.00
13604;BME280;24578;48.264;11.436;2024-01-06T13:52:50;95216.06;;;3.04;100.00
13604;BME280;24578;48.264;11.436;2024-01-06T13:58:52;95234.31;;;2.84;100.00
13604;BME280;24578;48.264;11.436;2024-01-06T14:04:57;95240.66;;;2.77;100.00
13604;BME280;24578;48.264;11.436;2024-01-06T14:10:58;95238.81;;;2.64;100.00
13604;BME280;24578;48.264;11.436;2024-01-06T14:17:00;95249.91;;;2.49;100.00
13604;BME280;24578;48.264;11.436;2024-01-06T14:23:03;95249.84;;;2.34;100.00
13604;BME280;24578;48.264;11.436;2024-01-06T14:29:04;95254.94;;;2.34;100.00
13604;BME280;24578;48.264;11.436;2024-01-06T14:35:07;95257.94;;;2.26;100.00
13604;BME280;24578;48.264;11.436;2024-01-06T14:41:12;95254.72;;;2.23;100.00
13604;BME280;24578;48.264;11.436;2024-01-06T14:47:14;95262.44;;;2.21;100.00
13604;BME280;24578;48.264;11.436;2024-01-06T14:53:16;95272.19;;;2.15;100.00
13604;BME280;24578;48.264;11.436;2024-01-06T14:59:17;95271.69;;;2.08;100.00
13604;BME280;24578;48.264;11.436;2024-01-06T15:05:21;95285.50;;;2.04;100.00
13604;BME280;24578;48.264;11.436;2024-01-06T15:11:24;95277.63;;;1.92;100.00
13604;BME280;24578;48.264;11.436;2024-01-06T15:17:26;95283.88;;;1.87;100.00
13604;BME280;24578;48.264;11.436;2024-01-06T15:23:28;95285.03;;;1.81;100.00
13604;BME280;24578;48.264;11.436;2024-01-06T15:29:29;95291.28;;;1.75;100.00
13604;BME280;24578;48.264;11.436;2024-01-06T15:35:31;95288.28;;;1.67;100.00
13604;BME280;24578;48.264;11.436;2024-01-06T15:41:33;95291.72;;;1.66;100.00
13604;BME280;24578;48.264;11.436;2024-01-06T15:47:44;95290.94;;;1.65;100.00
13604;BME280;24578;48.264;11.436;2024-01-06T15:53:47;95286.06;;;1.61;100.00
13604;BME280;24578;48.264;11.436;2024-01-06T15:59:56;95290.09;;;1.65;100.00
13604;BME280;24578;48.264;11.436;2024-01-06T16:05:58;95294.53;;;1.61;100.00
13604;BME280;24578;48.264;11.436;2024-01-06T16:12:14;95301.84;;;1.51;100.00
13604;BME280;24578;48.264;11.436;2024-01-06T16:18:19;95313.53;;;1.56;100.00
13604;BME280;24578;48.264;11.436;2024-01-06T16:24:22;95313.53;;;1.56;100.00
13604;BME280;24578;48.264;11.436;2024-01-06T16:30:28;95309.34;;;1.55;100.00
13604;BME280;24578;48.264;11.436;2024-01-06T16:36:31;95308.53;;;1.54;100.00
13604;BME280;24578;48.264;11.436;2024-01-06T16:42:34;95310.31;;;1.52;100.00
13604;BME280;24578;48.264;11.436;2024-01-06T16:48:36;95313.69;;;1.52;100.00
13604;BME280;24578;48.264;11.436;2024-01-06T16:54:45;95310.22;;;1.54;100.00
13604;BME280;24578;48.264;11.436;2024-01-06T17:00:49;95309.06;;;2.09;100.00
13604;BME280;24578;48.264;11.436;2024-01-06T17:06:54;95303.88;;;1.94;100.00
13604;BME280;24578;48.264;11.436;2024-01-06T17:13:04;95304.94;;;1.74;100.00
13604;BME280;24578;48.264;11.436;2024-01-06T17:19:06;95311.19;;;1.69;100.00
13604;BME280;24578;48.264;11.436;2024-01-06T17:25:20;95320.03;;;1.61;100.00
13604;BME280;24578;48.264;11.436;2024-01-06T17:31:22;95320.13;;;1.60;100.00
13604;BME280;24578;48.264;11.436;2024-01-06T17:37:33;95325.16;;;1.61;100.00
13604;BME280;24578;48.264;11.436;2024-01-06T17:43:35;95325.47;;;1.55;100.00
13604;BME280;24578;48.264;11.436;2024-01-06T17:49:37;95323.22;;;1.49;100.00
13604;BME280;24578;48.264;11.436;2024-01-06T17:55:39;95339.28;;;1.51;100.00
13604;BME280;24578;48.264;11.436;2024-01-06T18:01:41;95339.66;;;1.43;100.00
13604;BME280;24578;48.264;11.436;2024-01-06T18:07:46;95343.88;;;1.44;100.00
13604;BME280;24578;48.264;11.436;2024-01-06T18:13:51;95342.38;;;1.40;100.00
13604;BME280;24578;48.264;11.436;2024-01-06T18:19:52;95345.81;;;1.39;100.00
13604;BME280;24578;48.264;11.436;2024-01-06T18:25:54;95354.50;;;1.35;100.00
13604;BME280;24578;48.264;11.436;2024-01-06T18:32:11;95359.78;;;1.32;100.00
13604;BME280;24578;48.264;11.436;2024-01-06T18:38:16;95353.03;;;1.31;100.00
13604;BME280;24578;48.264;11.436;2024-01-06T18:44:24;95349.50;;;1.33;100.00
13604;BME280;24578;48.264;11.436;2024-01-06T18:50:33;95346.09;;;1.33;100.00
13604;BME280;24578;48.264;11.436;2024-01-06T18:56:53;95339.69;;;1.26;100.00
13604;BME280;24578;48.264;11.436;2024-01-06T19:02:54;95346.56;;;1.24;100.00
13604;BME280;24578;48.264;11.436;2024-01-06T19:08:56;95338.19;;;1.21;100.00
13604;BME280;24578;48.264;11.436;2024-01-06T19:15:01;95339.00;;;1.22;100.00
13604;BME280;24578;48.264;11.436;2024-01-06T19:21:03;95334.66;;;1.06;100.00
13604;BME280;24578;48.264;11.436;2024-01-06T19:27:04;95339.81;;;1.05;100.00
13604;BME280;24578;48.264;11.436;2024-01-06T19:33:06;95342.38;;;1.05;100.00
13604;BME280;24578;48.264;11.436;2024-01-06T19:39:11;95341.03;;;0.98;100.00
13604;BME280;24578;48.264;11.436;2024-01-06T19:45:14;95340.94;;;0.82;100.00
13604;BME280;24578;48.264;11.436;2024-01-06T19:51:19;95348.13;;;0.73;100.00
13604;BME280;24578;48.264;11.436;2024-01-06T19:57:25;95347.50;;;0.68;100.00
13604;BME280;24578;48.264;11.436;2024-01-06T20:03:26;95345.09;;;0.65;100.00
13604;BME280;24578;48.264;11.436;2024-01-06T20:09:28;95352.97;;;0.60;100.00
13604;BME280;24578;48.264;11.436;2024-01-06T20:15:30;95351.81;;;0.49;100.00
13604;BME280;24578;48.264;11.436;2024-01-06T20:21:32;95347.06;;;0.41;100.00
13604;BME280;24578;48.264;11.436;2024-01-06T20:27:34;95346.53;;;0.34;100.00
13604;BME280;24578;48.264;11.436;2024-01-06T20:33:37;95342.34;;;0.33;100.00
13604;BME280;24578;48.264;11.436;2024-01-06T20:39:39;95335.00;;;0.27;100.00
13604;BME280;24578;48.264;11.436;2024-01-06T20:45:41;95334.03;;;0.29;100.00
13604;BME280;24578;48.264;11.436;2024-01-06T20:51:45;95325.72;;;0.26;100.00
13604;BME280;24578;48.264;11.436;2024-01-06T20:57:47;95316.19;;;0.29;100.00
13604;BME280;24578;48.264;11.436;2024-01-06T21:03:49;95324.59;;;0.32;100.00
13604;BME280;24578;48.264;11.436;2024-01-06T21:09:54;95319.38;;;0.35;100.00
13604;BME280;24578;48.264;11.436;2024-01-06T21:15:57;95316.06;;;0.33;100.00
13604;BME280;24578;48.264;11.436;2024-01-06T21:21:59;95320.53;;;0.27;100.00
13604;BME280;24578;48.264;11.436;2024-01-06T21:28:01;95316.81;;;0.35;100.00
13604;BME280;24578;48.264;11.436;2024-01-06T21:34:03;95308.34;;;0.34;100.00
13604;BME280;24578;48.264;11.436;2024-01-06T21:40:09;95307.22;;;0.40;100.00
13604;BME280;24578;48.264;11.436;2024-01-06T21:46:11;95302.09;;;0.41;100.00
13604;BME280;24578;48.264;11.436;2024-01-06T21:52:13;95308.75;;;0.44;100.00
13604;BME280;24578;48.264;11.436;2024-01-06T21:58:15;95303.50;;;0.47;100.00
13604;BME280;24578;48.264;11.436;2024-01-06T22:04:16;95306.72;;;0.51;100.00
13604;BME280;24578;48.264;11.436;2024-01-06T22:10:18;95321.97;;;0.52;100.00
13604;BME280;24578;48.264;11.436;2024-01-06T22:16:20;95315.06;;;0.54;100.00
13604;BME280;24578;48.264;11.436;2024-01-06T22:22:22;95316.50;;;0.60;100.00
13604;BME280;24578;48.264;11.436;2024-01-06T22:28:26;95310.28;;;0.66;100.00
13604;BME280;24578;48.264;11.436;2024-01-06T22:34:28;95310.34;;;0.64;100.00
13604;BME280;24578;48.264;11.436;2024-01-06T22:40:30;95309.38;;;0.67;100.00
13604;BME280;24578;48.264;11.436;2024-01-06T22:46:31;95309.31;;;0.68;100.00
13604;BME280;24578;48.264;11.436;2024-01-06T22:52:35;95313.38;;;0.72;100.00
13604;BME280;24578;48.264;11.436;2024-01-06T22:58:37;95316.72;;;0.73;100.00
13604;BME280;24578;48.264;11.436;2024-01-06T23:04:38;95320.78;;;0.77;100.00
13604;BME280;24578;48.264;11.436;2024-01-06T23:10:40;95328.28;;;0.80;100.00
13604;BME280;24578;48.264;11.436;2024-01-06T23:16:42;95317.19;;;0.81;100.00
13604;BME280;24578;48.264;11.436;2024-01-06T23:22:45;95318.75;;;0.84;100.00
13604;BME280;24578;48.264;11.436;2024-01-06T23:28:47;95320.25;;;0.88;100.00
13604;BME280;24578;48.264;11.436;2024-01-06T23:34:48;95318.63;;;0.87;100.00
13604;BME280;24578;48.264;11.436;2024-01-06T23:40:50;95318.63;;;0.87;100.00
13604;BME280;24578;48.264;11.436;2024-01-06T23:46:52;95326.88;;;0.92;100.00
13604;BME280;24578;48.264;11.436;2024-01-06T23:52:53;95323.47;;;0.91;100.00
13604;BME280;24578;48.264;11.436;2024-01-06T23:58:55;95327.41;;;0.99;100.00
